createdAt,value
2019-04-01T00:00:12.356Z,1.00
2019-04-01T00:01:12.350Z,0.80
2019-04-01T00:02:12.345Z,1.10
2019-04-01T00:03:12.332Z,1.20
2019-04-01T00:04:12.335Z,1.40
2019-04-01T00:05:12.299Z,1.40
2019-04-01T00:06:12.291Z,1.10
2019-04-01T00:07:12.280Z,1.00
2019-04-01T00:08:12.264Z,1.70
2019-04-01T00:09:12.283Z,1.20
2019-04-01T00:10:12.249Z,1.10
2019-04-01T00:11:12.257Z,1.10
2019-04-01T00:12:12.226Z,1.10
2019-04-01T00:13:12.212Z,1.00
2019-04-01T00:14:12.653Z,1.40
2019-04-01T00:15:12.196Z,0.90
2019-04-01T00:16:12.185Z,1.10
2019-04-01T00:17:12.165Z,1.20
2019-04-01T00:18:12.165Z,0.90
2019-04-01T00:19:12.145Z,1.30
2019-04-01T00:20:12.164Z,1.60
2019-04-01T00:21:12.141Z,1.10
2019-04-01T00:22:12.119Z,0.90
2019-04-01T00:23:12.163Z,1.20
2019-04-01T00:24:12.096Z,1.20
2019-04-01T00:25:12.106Z,1.20
2019-04-01T00:26:12.101Z,1.50
2019-04-01T00:27:12.084Z,1.40
2019-04-01T00:28:12.052Z,1.20
2019-04-01T00:29:12.044Z,1.40
2019-04-01T00:30:12.031Z,1.40
2019-04-01T00:31:12.015Z,0.90
2019-04-01T00:32:12.031Z,1.10
2019-04-01T00:33:12.002Z,1.30
2019-04-01T00:34:11.993Z,1.00
2019-04-01T00:35:11.983Z,1.30
2019-04-01T00:36:11.975Z,1.20
2019-04-01T00:37:11.976Z,1.20
2019-04-01T00:38:11.943Z,1.40
2019-04-01T00:39:11.929Z,1.20
2019-04-01T00:40:11.928Z,1.20
2019-04-01T00:41:11.916Z,0.90
2019-04-01T00:42:11.938Z,1.20
2019-04-01T00:43:11.890Z,1.80
2019-04-01T00:44:11.885Z,1.10
2019-04-01T00:45:11.863Z,1.10
2019-04-01T00:46:11.851Z,1.10
2019-04-01T00:47:11.873Z,1.30
2019-04-01T00:48:11.838Z,1.00
2019-04-01T00:49:11.822Z,1.40
2019-04-01T00:50:11.807Z,1.30
2019-04-01T00:51:11.798Z,1.10
2019-04-01T00:52:11.814Z,1.30
2019-04-01T00:53:11.866Z,1.30
2019-04-01T00:54:11.774Z,1.30
2019-04-01T00:55:11.760Z,1.40
2019-04-01T00:56:21.659Z,1.50
2019-04-01T00:57:19.821Z,1.40
2019-04-01T00:58:11.758Z,1.30
2019-04-01T00:59:11.709Z,1.50
2019-04-01T01:00:20.737Z,1.50
2019-04-01T01:01:20.272Z,1.30
2019-04-01T01:02:20.299Z,1.90
2019-04-01T01:03:19.754Z,1.60
2019-04-01T01:04:20.867Z,1.10
2019-04-01T01:05:11.652Z,1.20
2019-04-01T01:06:11.639Z,1.40
2019-04-01T01:07:11.626Z,1.00
2019-04-01T01:08:11.616Z,1.40
2019-04-01T01:09:11.626Z,1.50
2019-04-01T01:10:11.596Z,1.40
2019-04-01T01:11:11.587Z,1.50
2019-04-01T01:12:11.604Z,1.60
2019-04-01T01:13:11.591Z,1.50
2019-04-01T01:14:11.576Z,1.40
2019-04-01T01:15:11.538Z,1.60
2019-04-01T01:16:11.533Z,1.90
2019-04-01T01:17:11.513Z,1.40
2019-04-01T01:18:11.501Z,1.30
2019-04-01T01:19:11.518Z,1.40
2019-04-01T01:20:11.489Z,1.40
2019-04-01T01:21:11.470Z,1.60
2019-04-01T01:22:11.463Z,1.70
2019-04-01T01:23:11.451Z,1.60
2019-04-01T01:24:11.554Z,1.90
2019-04-01T01:25:11.438Z,2.00
2019-04-01T01:26:11.435Z,2.50
2019-04-01T01:27:11.404Z,1.60
2019-04-01T01:28:11.396Z,1.90
2019-04-01T01:29:11.381Z,1.70
2019-04-01T01:30:11.396Z,1.30
2019-04-01T01:31:11.373Z,1.50
2019-04-01T01:32:11.358Z,2.10
2019-04-01T01:33:11.345Z,1.50
2019-04-01T01:34:11.338Z,1.90
2019-04-01T01:35:11.351Z,2.00
2019-04-01T01:36:11.310Z,2.20
2019-04-01T01:37:11.303Z,2.00
2019-04-01T01:38:11.291Z,1.40
2019-04-01T01:39:11.276Z,1.80
2019-04-01T01:40:11.368Z,1.90
2019-04-01T01:41:11.252Z,1.60
2019-04-01T01:42:11.239Z,1.40
2019-04-01T01:43:11.233Z,1.50
2019-04-01T01:44:11.234Z,1.30
2019-04-01T01:45:11.245Z,1.80
2019-04-01T01:46:11.203Z,1.50
2019-04-01T01:47:11.185Z,1.30
2019-04-01T01:48:11.179Z,1.80
2019-04-01T01:49:11.160Z,1.70
2019-04-01T01:50:11.153Z,2.00
2019-04-01T01:51:11.178Z,1.40
2019-04-01T01:52:11.154Z,1.10
2019-04-01T01:53:11.119Z,1.70
2019-04-01T01:54:11.109Z,1.20
2019-04-01T01:55:11.109Z,1.60
2019-04-01T01:56:11.109Z,1.40
2019-04-01T01:57:11.103Z,1.70
2019-04-01T01:58:11.069Z,1.50
2019-04-01T01:59:11.052Z,1.90
2019-04-01T02:00:11.044Z,1.40
2019-04-01T02:01:11.032Z,1.70
2019-04-01T02:02:11.045Z,1.40
2019-04-01T02:03:11.020Z,1.60
2019-04-01T02:04:11.005Z,1.70
2019-04-01T02:05:10.994Z,1.40
2019-04-01T02:06:10.986Z,1.50
2019-04-01T02:07:10.997Z,1.10
2019-04-01T02:08:10.951Z,1.40
2019-04-01T02:09:10.947Z,1.50
2019-04-01T02:10:10.957Z,1.50
2019-04-01T02:11:10.924Z,1.40
2019-04-01T02:12:10.911Z,2.00
2019-04-01T02:13:10.920Z,1.50
2019-04-01T02:14:10.949Z,1.40
2019-04-01T02:15:10.885Z,1.50
2019-04-01T02:16:10.876Z,1.30
2019-04-01T02:17:10.873Z,1.30
2019-04-01T02:18:10.889Z,1.60
2019-04-01T02:19:10.857Z,1.80
2019-04-01T02:20:10.826Z,1.90
2019-04-01T02:21:10.815Z,1.30
2019-04-01T02:22:10.804Z,1.30
2019-04-01T02:23:10.815Z,1.50
2019-04-01T02:24:10.784Z,1.30
2019-04-01T02:25:10.767Z,1.50
2019-04-01T02:26:10.759Z,1.80
2019-04-01T02:27:10.751Z,1.60
2019-04-01T02:28:10.761Z,1.30
2019-04-01T02:29:10.750Z,1.30
2019-04-01T02:30:10.717Z,1.70
2019-04-01T02:31:10.704Z,1.30
2019-04-01T02:32:10.700Z,1.80
2019-04-01T02:33:10.683Z,4.50
2019-04-01T02:34:10.693Z,1.80
2019-04-01T02:35:10.666Z,1.50
2019-04-01T02:36:10.658Z,1.80
2019-04-01T02:37:10.642Z,1.70
2019-04-01T02:38:10.680Z,1.90
2019-04-01T02:39:10.637Z,1.80
2019-04-01T02:40:10.638Z,1.90
2019-04-01T02:41:10.629Z,1.90
2019-04-01T02:42:10.588Z,2.00
2019-04-01T02:43:10.570Z,2.50
2019-04-01T02:44:10.590Z,2.10
2019-04-01T02:45:10.713Z,2.00
2019-04-01T02:46:10.539Z,2.50
2019-04-01T02:47:10.531Z,2.10
2019-04-01T02:48:10.558Z,2.20
2019-04-01T02:49:10.510Z,1.90
2019-04-01T02:50:10.551Z,1.90
2019-04-01T02:51:10.486Z,2.20
2019-04-01T02:52:10.474Z,1.90
2019-04-01T02:53:10.462Z,2.10
2019-04-01T02:54:10.466Z,1.80
2019-04-01T02:55:10.451Z,2.00
2019-04-01T02:56:10.470Z,2.10
2019-04-01T02:57:10.424Z,2.00
2019-04-01T02:58:10.420Z,1.90
2019-04-01T02:59:19.465Z,2.30
2019-04-01T03:00:10.411Z,1.70
2019-04-01T03:01:10.404Z,1.90
2019-04-01T03:02:10.372Z,2.10
2019-04-01T03:03:10.362Z,2.10
2019-04-01T03:04:10.369Z,2.40
2019-04-01T03:05:10.354Z,2.80
2019-04-01T03:06:10.319Z,3.10
2019-04-01T03:07:10.314Z,2.30
2019-04-01T03:08:10.304Z,2.60
2019-04-01T03:09:10.294Z,2.00
2019-04-01T03:10:10.312Z,1.50
2019-04-01T03:11:11.237Z,2.00
2019-04-01T03:12:10.268Z,1.70
2019-04-01T03:13:10.257Z,2.50
2019-04-01T03:14:10.250Z,2.20
2019-04-01T03:15:10.231Z,1.70
2019-04-01T03:16:10.242Z,2.00
2019-04-01T03:17:10.208Z,2.70
2019-04-01T03:18:10.191Z,2.80
2019-04-01T03:19:10.178Z,2.50
2019-04-01T03:20:10.172Z,2.60
2019-04-01T03:21:10.188Z,3.30
2019-04-01T03:22:10.151Z,2.90
2019-04-01T03:23:10.143Z,3.40
2019-04-01T03:24:10.134Z,3.40
2019-04-01T03:25:10.123Z,2.90
2019-04-01T03:26:10.138Z,3.30
2019-04-01T03:27:10.111Z,3.40
2019-04-01T03:28:10.088Z,3.10
2019-04-01T03:29:10.078Z,3.20
2019-04-01T03:30:10.132Z,3.00
2019-04-01T03:31:10.101Z,4.00
2019-04-01T03:32:10.067Z,4.30
2019-04-01T03:33:10.052Z,3.70
2019-04-01T03:34:10.064Z,3.10
2019-04-01T03:35:10.014Z,3.40
2019-04-01T03:36:10.025Z,5.50
2019-04-01T03:37:09.987Z,2.90
2019-04-01T03:38:09.993Z,5.90
2019-04-01T03:39:09.966Z,4.10
2019-04-01T03:40:09.954Z,3.30
2019-04-01T03:41:09.969Z,2.70
2019-04-01T03:42:09.943Z,4.20
2019-04-01T03:43:09.956Z,4.50
2019-04-01T03:44:09.920Z,4.10
2019-04-01T03:45:09.908Z,4.90
2019-04-01T03:46:09.902Z,4.00
2019-04-01T03:47:09.900Z,4.70
2019-04-01T03:48:09.880Z,4.50
2019-04-01T03:49:09.888Z,4.60
2019-04-01T03:50:09.853Z,4.30
2019-04-01T03:51:09.841Z,4.40
2019-04-01T03:52:10.484Z,4.90
2019-04-01T03:53:09.825Z,3.60
2019-04-01T03:54:09.836Z,4.40
2019-04-01T03:55:09.804Z,4.40
2019-04-01T03:56:09.789Z,4.50
2019-04-01T03:57:09.773Z,5.20
2019-04-01T03:58:09.766Z,6.30
2019-04-01T03:59:09.780Z,5.80
2019-04-01T04:00:09.750Z,5.30
2019-04-01T04:01:09.764Z,6.40
2019-04-01T04:02:09.722Z,6.10
2019-04-01T04:03:09.720Z,7.10
2019-04-01T04:04:09.734Z,8.20
2019-04-01T04:05:09.707Z,7.90
2019-04-01T04:06:09.700Z,7.50
2019-04-01T04:07:09.678Z,8.50
2019-04-01T04:08:09.660Z,6.20
2019-04-01T04:09:09.644Z,4.70
2019-04-01T04:10:09.678Z,4.10
2019-04-01T04:11:09.642Z,4.80
2019-04-01T04:12:09.612Z,4.60
2019-04-01T04:13:09.609Z,3.90
2019-04-01T04:14:09.596Z,3.60
2019-04-01T04:15:09.584Z,2.40
2019-04-01T04:16:09.591Z,2.90
2019-04-01T04:17:09.566Z,3.50
2019-04-01T04:18:09.560Z,3.00
2019-04-01T04:19:09.545Z,3.40
2019-04-01T04:20:09.561Z,3.90
2019-04-01T04:21:09.518Z,4.20
2019-04-01T04:22:09.507Z,3.60
2019-04-01T04:23:09.498Z,3.80
2019-04-01T04:24:09.521Z,4.30
2019-04-01T04:25:09.488Z,3.90
2019-04-01T04:26:09.509Z,3.60
2019-04-01T04:27:11.326Z,4.10
2019-04-01T04:28:09.470Z,3.90
2019-04-01T04:29:09.439Z,3.10
2019-04-01T04:30:09.423Z,3.20
2019-04-01T04:31:09.418Z,3.40
2019-04-01T04:32:09.431Z,3.80
2019-04-01T04:33:09.390Z,4.20
2019-04-01T04:34:09.380Z,4.10
2019-04-01T04:35:09.370Z,4.20
2019-04-01T04:36:09.362Z,3.30
2019-04-01T04:37:09.401Z,3.20
2019-04-01T04:38:09.369Z,3.00
2019-04-01T04:39:09.331Z,2.40
2019-04-01T04:40:09.324Z,3.00
2019-04-01T04:41:09.330Z,3.20
2019-04-01T04:42:09.296Z,3.30
2019-04-01T04:43:09.307Z,3.20
2019-04-01T04:44:09.273Z,2.70
2019-04-01T04:45:09.270Z,2.60
2019-04-01T04:46:09.257Z,3.00
2019-04-01T04:47:09.268Z,2.40
2019-04-01T04:48:09.241Z,2.70
2019-04-01T04:49:09.235Z,3.00
2019-04-01T04:50:09.225Z,2.10
2019-04-01T04:51:09.230Z,3.40
2019-04-01T04:52:09.225Z,3.20
2019-04-01T04:53:09.180Z,2.50
2019-04-01T04:54:09.169Z,2.70
2019-04-01T04:55:09.157Z,3.60
2019-04-01T04:56:09.151Z,2.90
2019-04-01T04:57:09.144Z,2.80
2019-04-01T04:58:09.154Z,1.90
2019-04-01T04:59:09.123Z,1.90
2019-04-01T05:00:09.111Z,2.20
2019-04-01T05:01:09.095Z,2.40
2019-04-01T05:02:09.085Z,2.30
2019-04-01T05:03:09.118Z,2.60
2019-04-01T05:04:09.067Z,2.10
2019-04-01T05:05:09.052Z,2.60
2019-04-01T05:06:09.044Z,2.50
2019-04-01T05:07:09.030Z,2.40
2019-04-01T05:08:09.018Z,3.20
2019-04-01T05:09:09.033Z,2.40
2019-04-01T05:10:09.007Z,2.10
2019-04-01T05:11:08.996Z,2.50
2019-04-01T05:12:09.002Z,2.50
2019-04-01T05:13:08.996Z,2.10
2019-04-01T05:14:08.956Z,2.10
2019-04-01T05:15:08.944Z,2.30
2019-04-01T05:16:08.933Z,2.00
2019-04-01T05:17:08.927Z,2.10
2019-04-01T05:18:08.923Z,2.00
2019-04-01T05:19:08.921Z,2.00
2019-04-01T05:20:08.894Z,2.30
2019-04-01T05:21:08.886Z,1.90
2019-04-01T05:22:08.875Z,3.00
2019-04-01T05:23:08.865Z,2.20
2019-04-01T05:24:08.875Z,2.70
2019-04-01T05:25:08.838Z,2.10
2019-04-01T05:26:08.826Z,2.50
2019-04-01T05:27:08.825Z,2.20
2019-04-01T05:28:08.805Z,1.90
2019-04-01T05:29:08.818Z,2.70
2019-04-01T05:30:08.789Z,3.20
2019-04-01T05:31:08.779Z,2.80
2019-04-01T05:32:08.768Z,1.90
2019-04-01T05:33:08.750Z,2.10
2019-04-01T05:34:08.773Z,2.00
2019-04-01T05:35:08.814Z,1.60
2019-04-01T05:36:08.724Z,2.00
2019-04-01T05:37:09.190Z,2.60
2019-04-01T05:38:08.701Z,2.50
2019-04-01T05:39:08.687Z,2.00
2019-04-01T05:40:08.719Z,2.80
2019-04-01T05:41:08.675Z,2.60
2019-04-01T05:42:08.662Z,2.10
2019-04-01T05:43:08.664Z,2.00
2019-04-01T05:44:08.644Z,2.10
2019-04-01T05:45:08.649Z,2.20
2019-04-01T05:46:08.635Z,2.10
2019-04-01T05:47:08.605Z,2.20
2019-04-01T05:48:08.646Z,2.60
2019-04-01T05:49:08.585Z,2.30
2019-04-01T05:50:08.608Z,1.80
2019-04-01T05:51:08.559Z,2.30
2019-04-01T05:52:08.555Z,2.10
2019-04-01T05:53:08.543Z,2.00
2019-04-01T05:54:08.532Z,2.40
2019-04-01T05:55:09.096Z,2.20
2019-04-01T05:56:08.510Z,2.30
2019-04-01T05:57:08.501Z,2.20
2019-04-01T05:58:08.481Z,2.40
2019-04-01T05:59:08.478Z,2.00
2019-04-01T06:00:08.493Z,2.60
2019-04-01T06:01:08.484Z,2.10
2019-04-01T06:02:08.445Z,2.50
2019-04-01T06:03:08.429Z,1.60
2019-04-01T06:04:08.423Z,2.30
2019-04-01T06:05:08.431Z,2.20
2019-04-01T06:06:08.422Z,2.20
2019-04-01T06:07:08.396Z,1.90
2019-04-01T06:08:08.375Z,1.90
2019-04-01T06:09:08.399Z,2.10
2019-04-01T06:10:08.361Z,1.90
2019-04-01T06:11:08.406Z,2.00
2019-04-01T06:12:08.336Z,2.00
2019-04-01T06:13:08.325Z,2.00
2019-04-01T06:14:08.308Z,2.10
2019-04-01T06:15:08.302Z,1.90
2019-04-01T06:16:08.289Z,1.70
2019-04-01T06:17:08.304Z,2.20
2019-04-01T06:18:08.274Z,2.20
2019-04-01T06:19:08.259Z,1.90
2019-04-01T06:20:08.257Z,1.80
2019-04-01T06:21:08.231Z,2.20
2019-04-01T06:22:08.245Z,2.00
2019-04-01T06:23:08.222Z,2.10
2019-04-01T06:24:08.204Z,2.50
2019-04-01T06:25:08.197Z,2.40
2019-04-01T06:26:08.180Z,2.40
2019-04-01T06:27:08.186Z,1.70
2019-04-01T06:28:08.156Z,2.20
2019-04-01T06:29:08.150Z,2.30
2019-04-01T06:30:08.159Z,1.90
2019-04-01T06:31:08.128Z,2.10
2019-04-01T06:32:09.016Z,2.20
2019-04-01T06:33:08.136Z,2.60
2019-04-01T06:34:08.110Z,2.00
2019-04-01T06:35:08.078Z,2.10
2019-04-01T06:36:08.067Z,2.60
2019-04-01T06:37:08.062Z,2.10
2019-04-01T06:38:08.072Z,2.20
2019-04-01T06:39:08.034Z,1.90
2019-04-01T06:40:08.075Z,2.20
2019-04-01T06:41:08.022Z,2.10
2019-04-01T06:42:08.022Z,1.80
2019-04-01T06:43:08.027Z,1.60
2019-04-01T06:44:07.985Z,1.40
2019-04-01T06:45:07.974Z,1.70
2019-04-01T06:46:07.958Z,1.80
2019-04-01T06:47:07.954Z,1.40
2019-04-01T06:48:07.950Z,2.00
2019-04-01T06:49:07.954Z,1.60
2019-04-01T06:50:07.940Z,1.70
2019-04-01T06:51:07.913Z,1.40
2019-04-01T06:52:07.900Z,1.80
2019-04-01T06:53:07.907Z,1.50
2019-04-01T06:54:07.897Z,1.80
2019-04-01T06:55:07.874Z,1.50
2019-04-01T06:56:07.857Z,1.90
2019-04-01T06:57:07.858Z,2.00
2019-04-01T06:58:07.832Z,2.50
2019-04-01T06:59:07.839Z,2.30
2019-04-01T07:00:07.811Z,2.00
2019-04-01T07:01:07.817Z,2.10
2019-04-01T07:02:07.792Z,2.00
2019-04-01T07:03:07.779Z,2.40
2019-04-01T07:04:07.800Z,2.10
2019-04-01T07:05:07.755Z,2.60
2019-04-01T07:06:07.744Z,2.40
2019-04-01T07:07:18.917Z,2.50
2019-04-01T07:08:08.719Z,2.60
2019-04-01T07:09:07.721Z,2.60
2019-04-01T07:10:07.730Z,2.60
2019-04-01T07:11:07.690Z,2.50
2019-04-01T07:12:07.681Z,3.10
2019-04-01T07:13:07.673Z,4.20
2019-04-01T07:14:07.664Z,3.50
2019-04-01T07:15:07.687Z,3.90
2019-04-01T07:16:15.440Z,4.10
2019-04-01T07:17:08.628Z,3.70
2019-04-01T07:18:07.614Z,4.50
2019-04-01T07:19:07.603Z,4.60
2019-04-01T07:20:08.967Z,4.60
2019-04-01T07:21:07.610Z,4.40
2019-04-01T07:22:07.578Z,3.90
2019-04-01T07:23:07.569Z,4.40
2019-04-01T07:24:07.572Z,4.40
2019-04-01T07:25:07.538Z,3.90
2019-04-01T07:26:07.547Z,4.00
2019-04-01T07:27:08.213Z,4.10
2019-04-01T07:28:07.513Z,3.60
2019-04-01T07:29:07.497Z,3.60
2019-04-01T07:30:07.499Z,2.80
2019-04-01T07:31:07.495Z,3.10
2019-04-01T07:32:07.464Z,3.20
2019-04-01T07:33:07.503Z,3.90
2019-04-01T07:34:07.467Z,3.30
2019-04-01T07:35:07.437Z,2.90
2019-04-01T07:36:07.426Z,2.80
2019-04-01T07:37:07.446Z,3.20
2019-04-01T07:38:07.399Z,3.50
2019-04-01T07:39:07.398Z,3.00
2019-04-01T07:40:07.379Z,2.30
2019-04-01T07:41:07.374Z,2.40
2019-04-01T07:42:07.360Z,2.90
2019-04-01T07:43:07.366Z,2.30
2019-04-01T07:44:07.356Z,3.60
2019-04-01T07:45:07.328Z,3.30
2019-04-01T07:46:08.238Z,3.60
2019-04-01T07:47:07.305Z,3.20
2019-04-01T07:48:07.311Z,2.50
2019-04-01T07:49:07.299Z,2.20
2019-04-01T07:50:07.346Z,1.70
2019-04-01T07:51:07.507Z,1.10
2019-04-01T07:52:07.255Z,1.30
2019-04-01T07:53:07.266Z,1.30
2019-04-01T07:54:07.233Z,1.40
2019-04-01T07:55:07.219Z,1.20
2019-04-01T07:56:07.213Z,1.40
2019-04-01T07:57:07.253Z,1.10
2019-04-01T07:58:07.213Z,0.90
2019-04-01T07:59:07.176Z,1.00
2019-04-01T08:00:07.167Z,1.30
2019-04-01T08:01:07.148Z,1.30
2019-04-01T08:02:07.148Z,1.20
2019-04-01T08:03:07.129Z,1.30
2019-04-01T08:04:07.141Z,1.00
2019-04-01T08:05:07.110Z,1.00
2019-04-01T08:06:07.121Z,1.30
2019-04-01T08:07:07.090Z,1.00
2019-04-01T08:08:07.080Z,1.10
2019-04-01T08:09:07.084Z,1.00
2019-04-01T08:10:07.066Z,1.20
2019-04-01T08:11:07.061Z,1.10
2019-04-01T08:12:07.102Z,1.10
2019-04-01T08:13:07.030Z,0.90
2019-04-01T08:14:07.016Z,1.20
2019-04-01T08:15:07.026Z,1.10
2019-04-01T08:16:06.990Z,1.00
2019-04-01T08:17:07.015Z,1.00
2019-04-01T08:18:06.972Z,0.80
2019-04-01T08:19:06.962Z,0.90
2019-04-01T08:20:06.951Z,1.00
2019-04-01T08:21:06.933Z,0.90
2019-04-01T08:22:06.924Z,0.90
2019-04-01T08:23:06.940Z,0.80
2019-04-01T08:24:06.898Z,1.50
2019-04-01T08:25:06.892Z,1.40
2019-04-01T08:26:06.907Z,1.20
2019-04-01T08:27:07.440Z,1.20
2019-04-01T08:28:06.888Z,1.10
2019-04-01T08:29:06.843Z,1.10
2019-04-01T08:30:06.866Z,1.10
2019-04-01T08:31:06.827Z,1.40
2019-04-01T08:32:06.817Z,1.40
2019-04-01T08:33:06.802Z,1.00
2019-04-01T08:34:06.802Z,0.90
2019-04-01T08:35:06.780Z,1.00
2019-04-01T08:36:06.789Z,0.60
2019-04-01T08:37:06.768Z,1.10
2019-04-01T08:38:06.832Z,1.00
2019-04-01T08:39:06.751Z,1.00
2019-04-01T08:40:06.732Z,0.80
2019-04-01T08:41:06.736Z,1.00
2019-04-01T08:42:06.703Z,1.00
2019-04-01T08:43:06.694Z,1.30
2019-04-01T08:44:06.685Z,0.90
2019-04-01T08:45:06.682Z,1.10
2019-04-01T08:46:06.685Z,1.20
2019-04-01T08:47:06.650Z,0.80
2019-04-01T08:48:06.640Z,1.00
2019-04-01T08:49:08.056Z,1.30
2019-04-01T08:50:06.646Z,1.10
2019-04-01T08:51:06.612Z,1.10
2019-04-01T08:52:06.601Z,0.80
2019-04-01T08:53:06.586Z,0.90
2019-04-01T08:54:06.571Z,1.30
2019-04-01T08:55:06.581Z,1.30
2019-04-01T08:56:06.550Z,0.80
2019-04-01T08:57:06.547Z,1.50
2019-04-01T08:58:06.574Z,2.00
2019-04-01T08:59:06.535Z,3.70
2019-04-01T09:00:06.531Z,3.50
2019-04-01T09:01:06.499Z,1.60
2019-04-01T09:02:17.090Z,1.00
2019-04-01T09:03:07.507Z,2.50
2019-04-01T09:04:06.485Z,1.10
2019-04-01T09:05:06.453Z,1.10
2019-04-01T09:06:06.607Z,0.80
2019-04-01T09:07:06.494Z,1.10
2019-04-01T09:08:06.426Z,0.90
2019-04-01T09:09:06.423Z,0.90
2019-04-01T09:10:06.412Z,1.30
2019-04-01T09:11:06.399Z,1.30
2019-04-01T09:12:06.389Z,1.20
2019-04-01T09:13:06.394Z,1.20
2019-04-01T09:14:06.363Z,0.80
2019-04-01T09:15:06.360Z,0.70
2019-04-01T09:16:06.342Z,0.80
2019-04-01T09:17:06.345Z,1.10
2019-04-01T09:18:06.352Z,1.00
2019-04-01T09:19:06.314Z,1.20
2019-04-01T09:20:06.310Z,1.40
2019-04-01T09:21:06.300Z,1.70
2019-04-01T09:22:06.287Z,1.30
2019-04-01T09:23:06.310Z,1.40
2019-04-01T09:24:06.273Z,1.40
2019-04-01T09:25:06.259Z,1.20
2019-04-01T09:26:06.246Z,0.90
2019-04-01T09:27:06.240Z,1.40
2019-04-01T09:28:06.229Z,1.10
2019-04-01T09:29:06.248Z,1.20
2019-04-01T09:30:06.241Z,1.70
2019-04-01T09:31:06.207Z,1.60
2019-04-01T09:32:06.200Z,1.50
2019-04-01T09:33:06.180Z,1.00
2019-04-01T09:34:06.206Z,1.00
2019-04-01T09:35:06.185Z,0.90
2019-04-01T09:36:06.164Z,0.90
2019-04-01T09:37:06.145Z,0.90
2019-04-01T09:38:06.134Z,1.20
2019-04-01T09:39:06.139Z,1.20
2019-04-01T09:40:06.139Z,1.40
2019-04-01T09:41:06.117Z,3.00
2019-04-01T09:42:06.103Z,1.60
2019-04-01T09:43:06.099Z,2.60
2019-04-01T09:44:06.087Z,1.60
2019-04-01T09:45:06.101Z,2.10
2019-04-01T09:46:06.057Z,1.70
2019-04-01T09:47:06.052Z,1.40
2019-04-01T09:48:06.044Z,1.50
2019-04-01T09:49:06.078Z,1.20
2019-04-01T09:50:06.029Z,1.20
2019-04-01T09:51:06.042Z,1.00
2019-04-01T09:52:06.005Z,1.30
2019-04-01T09:53:06.002Z,1.10
2019-04-01T09:54:06.068Z,1.10
2019-04-01T09:55:06.473Z,1.00
2019-04-01T09:56:05.985Z,1.00
2019-04-01T09:57:17.247Z,1.10
2019-04-01T09:58:06.952Z,1.30
2019-04-01T09:59:05.945Z,1.00
2019-04-01T10:00:05.935Z,1.10
2019-04-01T10:01:05.966Z,1.00
2019-04-01T10:02:05.927Z,0.90
2019-04-01T10:03:05.942Z,1.00
2019-04-01T10:04:05.906Z,1.20
2019-04-01T10:05:05.915Z,1.20
2019-04-01T10:06:05.923Z,1.00
2019-04-01T10:07:05.921Z,0.90
2019-04-01T10:08:05.879Z,1.00
2019-04-01T10:09:05.856Z,1.10
2019-04-01T10:10:05.851Z,1.10
2019-04-01T10:11:05.840Z,1.00
2019-04-01T10:12:05.914Z,1.00
2019-04-01T10:13:05.870Z,0.90
2019-04-01T10:14:05.834Z,1.20
2019-04-01T10:15:05.846Z,0.80
2019-04-01T10:16:05.834Z,0.80
2019-04-01T10:17:05.872Z,1.10
2019-04-01T10:18:05.820Z,1.00
2019-04-01T10:19:05.832Z,1.00
2019-04-01T10:20:05.766Z,1.20
2019-04-01T10:21:05.766Z,1.20
2019-04-01T10:22:05.748Z,1.30
2019-04-01T10:23:05.784Z,1.00
2019-04-01T10:24:05.728Z,0.90
2019-04-01T10:25:05.727Z,1.10
2019-04-01T10:26:05.715Z,1.10
2019-04-01T10:27:05.707Z,1.20
2019-04-01T10:28:05.722Z,1.10
2019-04-01T10:29:05.681Z,0.90
2019-04-01T10:30:05.676Z,1.10
2019-04-01T10:31:05.661Z,1.10
2019-04-01T10:32:05.652Z,1.30
2019-04-01T10:33:05.669Z,1.00
2019-04-01T10:34:05.660Z,1.00
2019-04-01T10:35:05.630Z,1.10
2019-04-01T10:36:05.622Z,1.10
2019-04-01T10:37:05.609Z,1.20
2019-04-01T10:38:05.624Z,1.30
2019-04-01T10:39:05.589Z,1.70
2019-04-01T10:40:05.588Z,1.90
2019-04-01T10:41:05.563Z,1.70
2019-04-01T10:42:05.552Z,1.50
2019-04-01T10:43:05.541Z,1.10
2019-04-01T10:44:05.553Z,1.50
2019-04-01T10:45:05.551Z,1.40
2019-04-01T10:46:05.515Z,1.20
2019-04-01T10:47:05.524Z,1.40
2019-04-01T10:48:05.519Z,1.30
2019-04-01T10:49:05.504Z,1.20
2019-04-01T10:50:05.525Z,1.30
2019-04-01T10:51:05.502Z,1.50
2019-04-01T10:52:05.463Z,1.40
2019-04-01T10:53:05.491Z,1.90
2019-04-01T10:54:05.463Z,1.50
2019-04-01T10:55:05.499Z,2.20
2019-04-01T10:56:05.411Z,2.80
2019-04-01T10:57:05.447Z,2.50
2019-04-01T10:58:05.394Z,2.20
2019-04-01T10:59:05.463Z,1.80
2019-04-01T11:00:05.417Z,2.00
2019-04-01T11:01:05.429Z,1.90
2019-04-01T11:02:05.368Z,1.50
2019-04-01T11:03:06.194Z,1.30
2019-04-01T11:04:05.375Z,1.50
2019-04-01T11:05:05.368Z,1.50
2019-04-01T11:06:05.321Z,1.20
2019-04-01T11:07:05.315Z,1.10
2019-04-01T11:08:05.339Z,1.10
2019-04-01T11:09:05.322Z,1.30
2019-04-01T11:10:05.260Z,1.30
2019-04-01T11:11:05.256Z,1.40
2019-04-01T11:12:05.270Z,1.30
2019-04-01T11:13:05.223Z,1.30
2019-04-01T11:14:05.220Z,1.20
2019-04-01T11:15:05.203Z,1.40
2019-04-01T11:16:05.189Z,1.30
2019-04-01T11:17:05.197Z,1.20
2019-04-01T11:18:05.207Z,1.40
2019-04-01T11:19:05.177Z,1.30
2019-04-01T11:20:05.154Z,1.20
2019-04-01T11:21:05.455Z,1.20
2019-04-01T11:22:05.134Z,1.10
2019-04-01T11:23:05.410Z,1.20
2019-04-01T11:24:07.584Z,1.50
2019-04-01T11:25:05.095Z,1.40
2019-04-01T11:26:05.086Z,1.60
2019-04-01T11:27:05.071Z,1.60
2019-04-01T11:28:05.096Z,1.50
2019-04-01T11:29:05.236Z,1.20
2019-04-01T11:30:05.049Z,1.20
2019-04-01T11:31:05.027Z,1.20
2019-04-01T11:32:05.078Z,1.40
2019-04-01T11:33:07.670Z,1.50
2019-04-01T11:34:05.054Z,2.10
2019-04-01T11:35:04.999Z,1.50
2019-04-01T11:36:05.015Z,1.30
2019-04-01T11:37:04.990Z,1.50
2019-04-01T11:38:04.971Z,1.70
2019-04-01T11:39:05.338Z,1.40
2019-04-01T11:40:04.964Z,1.20
2019-04-01T11:41:04.923Z,1.10
2019-04-01T11:42:04.927Z,1.50
2019-04-01T11:43:05.374Z,1.60
2019-04-01T11:44:04.947Z,1.30
2019-04-01T11:45:05.939Z,1.60
2019-04-01T11:46:04.965Z,1.40
2019-04-01T11:47:04.877Z,1.80
2019-04-01T11:48:04.903Z,1.60
2019-04-01T11:49:04.880Z,1.70
2019-04-01T11:50:04.876Z,1.50
2019-04-01T11:51:04.844Z,1.50
2019-04-01T11:52:04.847Z,1.60
2019-04-01T11:53:04.797Z,1.10
2019-04-01T11:54:08.017Z,1.50
2019-04-01T11:55:06.656Z,1.20
2019-04-01T11:56:04.760Z,1.00
2019-04-01T11:57:04.749Z,1.00
2019-04-01T11:58:04.750Z,1.00
2019-04-01T11:59:04.734Z,1.10
2019-04-01T12:00:04.751Z,1.00
2019-04-01T12:01:04.708Z,1.20
2019-04-01T12:02:04.696Z,1.00
2019-04-01T12:03:04.685Z,1.20
2019-04-01T12:04:04.685Z,1.30
2019-04-01T12:05:04.691Z,0.90
2019-04-01T12:06:04.653Z,1.10
2019-04-01T12:07:04.639Z,1.10
2019-04-01T12:08:04.626Z,1.40
2019-04-01T12:09:04.621Z,1.20
2019-04-01T12:10:07.500Z,1.30
2019-04-01T12:11:04.620Z,1.00
2019-04-01T12:12:04.590Z,1.30
2019-04-01T12:13:04.581Z,1.30
2019-04-01T12:14:05.180Z,1.00
2019-04-01T12:15:04.554Z,1.50
2019-04-01T12:16:04.569Z,1.10
2019-04-01T12:17:04.537Z,1.00
2019-04-01T12:18:04.524Z,0.80
2019-04-01T12:19:04.506Z,1.00
2019-04-01T12:20:04.495Z,0.90
2019-04-01T12:21:04.510Z,1.00
2019-04-01T12:22:04.479Z,0.80
2019-04-01T12:23:04.467Z,1.00
2019-04-01T12:24:04.458Z,1.10
2019-04-01T12:25:04.464Z,1.50
2019-04-01T12:26:15.156Z,1.10
2019-04-01T12:27:05.458Z,1.10
2019-04-01T12:28:04.409Z,1.20
2019-04-01T12:29:04.407Z,1.10
2019-04-01T12:30:04.393Z,1.20
2019-04-01T12:31:04.372Z,1.50
2019-04-01T12:32:04.371Z,1.00
2019-04-01T12:33:04.378Z,1.00
2019-04-01T12:34:04.350Z,0.90
2019-04-01T12:35:04.338Z,0.90
2019-04-01T12:36:04.326Z,1.10
2019-04-01T12:37:04.310Z,1.30
2019-04-01T12:38:04.322Z,1.00
2019-04-01T12:39:04.291Z,1.20
2019-04-01T12:40:04.278Z,1.00
2019-04-01T12:41:04.274Z,0.90
2019-04-01T12:42:04.262Z,1.00
2019-04-01T12:43:04.282Z,1.20
2019-04-01T12:44:04.242Z,1.00
2019-04-01T12:45:04.227Z,1.00
2019-04-01T12:46:04.212Z,0.90
2019-04-01T12:47:04.216Z,0.80
2019-04-01T12:48:04.198Z,1.10
2019-04-01T12:49:04.213Z,1.10
2019-04-01T12:50:04.172Z,1.10
2019-04-01T12:51:04.164Z,1.10
2019-04-01T12:52:04.148Z,1.20
2019-04-01T12:53:04.152Z,0.90
2019-04-01T12:54:04.132Z,1.00
2019-04-01T12:55:04.141Z,1.20
2019-04-01T12:56:04.112Z,0.90
2019-04-01T12:57:04.125Z,0.90
2019-04-01T12:58:04.088Z,1.00
2019-04-01T12:59:04.069Z,1.20
2019-04-01T13:00:04.084Z,1.00
2019-04-01T13:01:04.074Z,0.90
2019-04-01T13:02:04.048Z,1.30
2019-04-01T13:03:04.070Z,0.80
2019-04-01T13:04:04.509Z,1.60
2019-04-01T13:05:04.011Z,1.00
2019-04-01T13:06:03.998Z,1.60
2019-04-01T13:07:05.118Z,1.20
2019-04-01T13:08:03.977Z,1.00
2019-04-01T13:09:03.981Z,1.20
2019-04-01T13:10:03.960Z,1.10
2019-04-01T13:11:03.939Z,1.50
2019-04-01T13:12:03.928Z,1.10
2019-04-01T13:13:03.922Z,2.00
2019-04-01T13:14:03.951Z,1.70
2019-04-01T13:15:03.903Z,1.40
2019-04-01T13:16:03.892Z,1.70
2019-04-01T13:17:03.875Z,1.60
2019-04-01T13:18:03.862Z,1.60